sensor_id;sensor_type;location;lat;lon;timestamp;P1;durP1;ratioP1;P2;durP2;ratioP2
18754;SDS011;35061;47.664;9.166;2023-08-24T00:00:45;5.00;;;4.50;;
18754;SDS011;35061;47.664;9.166;2023-08-24T00:03:13;5.15;;;4.72;;
18754;SDS011;35061;47.664;9.166;2023-08-24T00:05:41;5.03;;;4.57;;
18754;SDS011;35061;47.664;9.166;2023-08-24T00:08:10;5.55;;;5.05;;
18754;SDS011;35061;47.664;9.166;2023-08-24T00:10:39;5.28;;;4.87;;
18754;SDS011;35061;47.664;9.166;2023-08-24T00:13:07;6.05;;;4.70;;
18754;SDS011;35061;47.664;9.166;2023-08-24T00:15:35;7.43;;;5.30;;
18754;SDS011;35061;47.664;9.166;2023-08-24T00:18:03;8.95;;;5.30;;
18754;SDS011;35061;47.664;9.166;2023-08-24T00:20:33;5.87;;;5.37;;
18754;SDS011;35061;47.664;9.166;2023-08-24T00:23:01;5.65;;;5.15;;
18754;SDS011;35061;47.664;9.166;2023-08-24T00:25:29;5.85;;;5.07;;
18754;SDS011;35061;47.664;9.166;2023-08-24T00:27:58;6.00;;;5.35;;
18754;SDS011;35061;47.664;9.166;2023-08-24T00:30:26;5.15;;;4.72;;
18754;SDS011;35061;47.664;9.166;2023-08-24T00:32:54;6.00;;;5.10;;
18754;SDS011;35061;47.664;9.166;2023-08-24T00:35:22;6.00;;;5.37;;
18754;SDS011;35061;47.664;9.166;2023-08-24T00:37:50;6.53;;;5.20;;
18754;SDS011;35061;47.664;9.166;2023-08-24T00:40:18;6.80;;;5.60;;
18754;SDS011;35061;47.664;9.166;2023-08-24T00:42:46;6.32;;;5.25;;
18754;SDS011;35061;47.664;9.166;2023-08-24T00:45:14;6.93;;;6.22;;
18754;SDS011;35061;47.664;9.166;2023-08-24T00:47:43;6.35;;;5.80;;
18754;SDS011;35061;47.664;9.166;2023-08-24T00:50:13;6.25;;;5.60;;
18754;SDS011;35061;47.664;9.166;2023-08-24T00:52:41;5.90;;;5.43;;
18754;SDS011;35061;47.664;9.166;2023-08-24T00:55:10;6.20;;;5.60;;
18754;SDS011;35061;47.664;9.166;2023-08-24T00:57:38;6.93;;;6.32;;
18754;SDS011;35061;47.664;9.166;2023-08-24T01:00:09;7.55;;;5.62;;
18754;SDS011;35061;47.664;9.166;2023-08-24T01:02:38;6.35;;;5.85;;
18754;SDS011;35061;47.664;9.166;2023-08-24T01:05:06;7.03;;;6.40;;
18754;SDS011;35061;47.664;9.166;2023-08-24T01:07:35;6.55;;;6.03;;
18754;SDS011;35061;47.664;9.166;2023-08-24T01:10:07;6.68;;;5.95;;
18754;SDS011;35061;47.664;9.166;2023-08-24T01:17:46;5.87;;;5.40;;
18754;SDS011;35061;47.664;9.166;2023-08-24T01:20:18;7.68;;;5.62;;
18754;SDS011;35061;47.664;9.166;2023-08-24T01:22:57;6.75;;;6.15;;
18754;SDS011;35061;47.664;9.166;2023-08-24T01:25:45;7.10;;;6.28;;
18754;SDS011;35061;47.664;9.166;2023-08-24T01:28:23;7.47;;;6.40;;
18754;SDS011;35061;47.664;9.166;2023-08-24T01:30:52;6.20;;;5.60;;
18754;SDS011;35061;47.664;9.166;2023-08-24T01:33:20;6.87;;;6.20;;
18754;SDS011;35061;47.664;9.166;2023-08-24T01:35:49;6.40;;;5.80;;
18754;SDS011;35061;47.664;9.166;2023-08-24T01:38:16;7.90;;;6.05;;
18754;SDS011;35061;47.664;9.166;2023-08-24T01:43:31;7.85;;;6.65;;
18754;SDS011;35061;47.664;9.166;2023-08-24T01:46:07;7.12;;;5.62;;
18754;SDS011;35061;47.664;9.166;2023-08-24T01:48:35;7.12;;;6.43;;
18754;SDS011;35061;47.664;9.166;2023-08-24T01:51:04;7.18;;;6.53;;
18754;SDS011;35061;47.664;9.166;2023-08-24T01:53:33;6.93;;;6.32;;
18754;SDS011;35061;47.664;9.166;2023-08-24T01:56:01;9.18;;;6.55;;
18754;SDS011;35061;47.664;9.166;2023-08-24T01:58:35;6.72;;;6.05;;
18754;SDS011;35061;47.664;9.166;2023-08-24T02:01:04;6.53;;;6.00;;
18754;SDS011;35061;47.664;9.166;2023-08-24T02:03:32;6.35;;;5.78;;
18754;SDS011;35061;47.664;9.166;2023-08-24T02:06:01;8.70;;;5.90;;
18754;SDS011;35061;47.664;9.166;2023-08-24T02:08:29;7.85;;;6.35;;
18754;SDS011;35061;47.664;9.166;2023-08-24T02:10:57;8.57;;;6.12;;
18754;SDS011;35061;47.664;9.166;2023-08-24T02:13:25;7.30;;;6.47;;
18754;SDS011;35061;47.664;9.166;2023-08-24T02:16:03;7.18;;;6.47;;
18754;SDS011;35061;47.664;9.166;2023-08-24T02:18:32;6.55;;;6.00;;
18754;SDS011;35061;47.664;9.166;2023-08-24T02:21:00;7.62;;;6.45;;
18754;SDS011;35061;47.664;9.166;2023-08-24T02:23:34;7.28;;;6.57;;
18754;SDS011;35061;47.664;9.166;2023-08-24T02:26:02;7.93;;;6.55;;
18754;SDS011;35061;47.664;9.166;2023-08-24T02:28:30;7.00;;;6.40;;
18754;SDS011;35061;47.664;9.166;2023-08-24T02:31:00;7.05;;;6.35;;
18754;SDS011;35061;47.664;9.166;2023-08-24T02:33:30;7.22;;;6.60;;
18754;SDS011;35061;47.664;9.166;2023-08-24T02:35:58;6.95;;;6.30;;
18754;SDS011;35061;47.664;9.166;2023-08-24T02:38:26;7.50;;;6.78;;
18754;SDS011;35061;47.664;9.166;2023-08-24T02:41:01;6.60;;;5.85;;
18754;SDS011;35061;47.664;9.166;2023-08-24T02:43:30;7.18;;;6.57;;
18754;SDS011;35061;47.664;9.166;2023-08-24T02:46:02;6.62;;;6.03;;
18754;SDS011;35061;47.664;9.166;2023-08-24T02:48:31;6.10;;;5.55;;
18754;SDS011;35061;47.664;9.166;2023-08-24T02:51:00;6.05;;;5.53;;
18754;SDS011;35061;47.664;9.166;2023-08-24T02:53:30;5.70;;;5.20;;
18754;SDS011;35061;47.664;9.166;2023-08-24T02:55:58;6.35;;;5.78;;
18754;SDS011;35061;47.664;9.166;2023-08-24T02:58:27;6.25;;;5.70;;
18754;SDS011;35061;47.664;9.166;2023-08-24T03:00:55;6.45;;;5.90;;
18754;SDS011;35061;47.664;9.166;2023-08-24T03:03:23;6.97;;;6.37;;
18754;SDS011;35061;47.664;9.166;2023-08-24T03:05:59;6.62;;;6.03;;
18754;SDS011;35061;47.664;9.166;2023-08-24T03:08:29;6.82;;;6.32;;
18754;SDS011;35061;47.664;9.166;2023-08-24T03:10:59;7.37;;;6.37;;
18754;SDS011;35061;47.664;9.166;2023-08-24T03:13:28;7.62;;;6.80;;
18754;SDS011;35061;47.664;9.166;2023-08-24T03:15:57;7.93;;;5.90;;
18754;SDS011;35061;47.664;9.166;2023-08-24T03:18:30;7.43;;;6.47;;
18754;SDS011;35061;47.664;9.166;2023-08-24T03:20:58;7.55;;;6.85;;
18754;SDS011;35061;47.664;9.166;2023-08-24T03:23:26;7.65;;;6.95;;
18754;SDS011;35061;47.664;9.166;2023-08-24T03:25:55;7.85;;;7.15;;
18754;SDS011;35061;47.664;9.166;2023-08-24T03:28:23;7.85;;;7.12;;
18754;SDS011;35061;47.664;9.166;2023-08-24T03:30:51;8.68;;;7.87;;
18754;SDS011;35061;47.664;9.166;2023-08-24T03:33:20;8.02;;;7.22;;
18754;SDS011;35061;47.664;9.166;2023-08-24T03:35:48;8.93;;;8.00;;
18754;SDS011;35061;47.664;9.166;2023-08-24T03:38:17;8.35;;;7.65;;
18754;SDS011;35061;47.664;9.166;2023-08-24T03:40:45;8.35;;;7.55;;
18754;SDS011;35061;47.664;9.166;2023-08-24T03:43:13;8.23;;;7.43;;
18754;SDS011;35061;47.664;9.166;2023-08-24T03:45:41;7.95;;;7.25;;
18754;SDS011;35061;47.664;9.166;2023-08-24T03:48:10;8.18;;;6.95;;
18754;SDS011;35061;47.664;9.166;2023-08-24T03:50:38;7.95;;;7.22;;
18754;SDS011;35061;47.664;9.166;2023-08-24T03:53:06;7.75;;;7.05;;
18754;SDS011;35061;47.664;9.166;2023-08-24T03:55:34;8.23;;;7.05;;
18754;SDS011;35061;47.664;9.166;2023-08-24T03:58:02;7.28;;;6.57;;
18754;SDS011;35061;47.664;9.166;2023-08-24T04:00:31;7.93;;;7.12;;
18754;SDS011;35061;47.664;9.166;2023-08-24T04:02:59;7.32;;;6.68;;
18754;SDS011;35061;47.664;9.166;2023-08-24T04:05:27;7.53;;;6.82;;
18754;SDS011;35061;47.664;9.166;2023-08-24T04:07:55;7.30;;;6.75;;
18754;SDS011;35061;47.664;9.166;2023-08-24T04:10:23;7.18;;;6.57;;
18754;SDS011;35061;47.664;9.166;2023-08-24T04:12:51;6.62;;;6.05;;
18754;SDS011;35061;47.664;9.166;2023-08-24T04:15:19;7.20;;;6.60;;
18754;SDS011;35061;47.664;9.166;2023-08-24T04:17:47;7.00;;;6.40;;
18754;SDS011;35061;47.664;9.166;2023-08-24T04:20:15;6.80;;;6.07;;
18754;SDS011;35061;47.664;9.166;2023-08-24T04:22:46;7.37;;;6.37;;
18754;SDS011;35061;47.664;9.166;2023-08-24T04:25:24;7.18;;;6.57;;
18754;SDS011;35061;47.664;9.166;2023-08-24T04:27:57;6.78;;;6.18;;
18754;SDS011;35061;47.664;9.166;2023-08-24T04:30:28;6.95;;;6.35;;
18754;SDS011;35061;47.664;9.166;2023-08-24T04:32:56;7.35;;;6.68;;
18754;SDS011;35061;47.664;9.166;2023-08-24T04:35:26;7.60;;;6.90;;
18754;SDS011;35061;47.664;9.166;2023-08-24T04:37:55;7.93;;;7.05;;
18754;SDS011;35061;47.664;9.166;2023-08-24T04:40:23;9.07;;;7.20;;
18754;SDS011;35061;47.664;9.166;2023-08-24T04:42:51;7.53;;;6.85;;
18754;SDS011;35061;47.664;9.166;2023-08-24T04:45:19;7.60;;;6.87;;
18754;SDS011;35061;47.664;9.166;2023-08-24T04:47:50;9.07;;;6.93;;
18754;SDS011;35061;47.664;9.166;2023-08-24T04:50:25;7.70;;;6.90;;
18754;SDS011;35061;47.664;9.166;2023-08-24T04:52:53;8.10;;;7.30;;
18754;SDS011;35061;47.664;9.166;2023-08-24T04:55:22;7.97;;;7.18;;
18754;SDS011;35061;47.664;9.166;2023-08-24T04:57:52;7.85;;;7.15;;
18754;SDS011;35061;47.664;9.166;2023-08-24T05:00:20;8.02;;;7.15;;
18754;SDS011;35061;47.664;9.166;2023-08-24T05:02:48;7.25;;;6.72;;
18754;SDS011;35061;47.664;9.166;2023-08-24T05:05:16;6.93;;;6.37;;
18754;SDS011;35061;47.664;9.166;2023-08-24T05:07:44;7.68;;;6.85;;
18754;SDS011;35061;47.664;9.166;2023-08-24T05:10:13;8.50;;;7.60;;
18754;SDS011;35061;47.664;9.166;2023-08-24T05:12:41;7.93;;;7.22;;
18754;SDS011;35061;47.664;9.166;2023-08-24T05:15:09;8.82;;;5.97;;
18754;SDS011;35061;47.664;9.166;2023-08-24T05:17:37;7.78;;;7.07;;
18754;SDS011;35061;47.664;9.166;2023-08-24T05:20:06;8.02;;;7.32;;
18754;SDS011;35061;47.664;9.166;2023-08-24T05:22:38;8.43;;;7.62;;
18754;SDS011;35061;47.664;9.166;2023-08-24T05:25:07;8.27;;;7.47;;
18754;SDS011;35061;47.664;9.166;2023-08-24T05:27:35;8.02;;;7.28;;
18754;SDS011;35061;47.664;9.166;2023-08-24T05:30:03;8.70;;;7.43;;
18754;SDS011;35061;47.664;9.166;2023-08-24T05:32:33;8.48;;;7.68;;
18754;SDS011;35061;47.664;9.166;2023-08-24T05:35:05;8.70;;;7.55;;
18754;SDS011;35061;47.664;9.166;2023-08-24T05:37:34;8.98;;;8.07;;
18754;SDS011;35061;47.664;9.166;2023-08-24T05:40:02;8.15;;;6.93;;
18754;SDS011;35061;47.664;9.166;2023-08-24T05:42:32;8.15;;;7.35;;
18754;SDS011;35061;47.664;9.166;2023-08-24T05:45:00;9.02;;;6.50;;
18754;SDS011;35061;47.664;9.166;2023-08-24T05:47:28;7.57;;;6.93;;
18754;SDS011;35061;47.664;9.166;2023-08-24T05:49:56;12.10;;;6.95;;
18754;SDS011;35061;47.664;9.166;2023-08-24T05:52:24;9.73;;;7.30;;
18754;SDS011;35061;47.664;9.166;2023-08-24T05:54:52;8.75;;;6.82;;
18754;SDS011;35061;47.664;9.166;2023-08-24T05:57:20;7.60;;;6.93;;
18754;SDS011;35061;47.664;9.166;2023-08-24T05:59:48;8.15;;;7.10;;
18754;SDS011;35061;47.664;9.166;2023-08-24T06:02:16;10.27;;;7.47;;
18754;SDS011;35061;47.664;9.166;2023-08-24T06:04:44;8.48;;;6.87;;
18754;SDS011;35061;47.664;9.166;2023-08-24T06:07:12;8.40;;;7.60;;
18754;SDS011;35061;47.664;9.166;2023-08-24T06:09:40;8.70;;;7.80;;
18754;SDS011;35061;47.664;9.166;2023-08-24T06:12:08;15.43;;;9.43;;
18754;SDS011;35061;47.664;9.166;2023-08-24T06:14:36;12.55;;;9.65;;
18754;SDS011;35061;47.664;9.166;2023-08-24T06:17:04;10.48;;;8.65;;
18754;SDS011;35061;47.664;9.166;2023-08-24T06:19:32;13.75;;;8.20;;
18754;SDS011;35061;47.664;9.166;2023-08-24T06:22:00;10.18;;;7.93;;
18754;SDS011;35061;47.664;9.166;2023-08-24T06:24:28;9.43;;;8.52;;
18754;SDS011;35061;47.664;9.166;2023-08-24T06:26:56;9.73;;;7.80;;
18754;SDS011;35061;47.664;9.166;2023-08-24T06:29:24;7.72;;;7.10;;
18754;SDS011;35061;47.664;9.166;2023-08-24T06:31:52;7.55;;;6.90;;
18754;SDS011;35061;47.664;9.166;2023-08-24T06:34:20;7.30;;;6.70;;
18754;SDS011;35061;47.664;9.166;2023-08-24T06:36:49;8.38;;;7.57;;
18754;SDS011;35061;47.664;9.166;2023-08-24T06:39:18;7.95;;;7.03;;
18754;SDS011;35061;47.664;9.166;2023-08-24T06:41:46;7.20;;;6.57;;
18754;SDS011;35061;47.664;9.166;2023-08-24T06:44:14;9.05;;;6.68;;
18754;SDS011;35061;47.664;9.166;2023-08-24T06:46:42;7.53;;;6.82;;
18754;SDS011;35061;47.664;9.166;2023-08-24T06:49:10;8.13;;;7.10;;
18754;SDS011;35061;47.664;9.166;2023-08-24T06:51:38;7.37;;;6.65;;
18754;SDS011;35061;47.664;9.166;2023-08-24T06:54:06;8.48;;;7.03;;
18754;SDS011;35061;47.664;9.166;2023-08-24T06:56:34;9.98;;;7.00;;
18754;SDS011;35061;47.664;9.166;2023-08-24T06:59:02;7.37;;;6.60;;
18754;SDS011;35061;47.664;9.166;2023-08-24T07:01:30;6.87;;;6.35;;
18754;SDS011;35061;47.664;9.166;2023-08-24T07:03:59;8.75;;;6.82;;
18754;SDS011;35061;47.664;9.166;2023-08-24T07:06:27;7.15;;;6.55;;
18754;SDS011;35061;47.664;9.166;2023-08-24T07:08:56;7.95;;;7.25;;
18754;SDS011;35061;47.664;9.166;2023-08-24T07:11:24;7.95;;;7.15;;
18754;SDS011;35061;47.664;9.166;2023-08-24T07:13:52;7.20;;;6.50;;
18754;SDS011;35061;47.664;9.166;2023-08-24T07:16:21;7.82;;;6.90;;
18754;SDS011;35061;47.664;9.166;2023-08-24T07:18:49;11.12;;;6.55;;
18754;SDS011;35061;47.664;9.166;2023-08-24T07:21:17;7.45;;;6.50;;
18754;SDS011;35061;47.664;9.166;2023-08-24T07:23:46;6.95;;;5.72;;
18754;SDS011;35061;47.664;9.166;2023-08-24T07:26:14;7.32;;;6.68;;
18754;SDS011;35061;47.664;9.166;2023-08-24T07:28:41;7.20;;;6.45;;
18754;SDS011;35061;47.664;9.166;2023-08-24T07:31:10;7.35;;;6.43;;
18754;SDS011;35061;47.664;9.166;2023-08-24T07:33:38;7.05;;;6.35;;
18754;SDS011;35061;47.664;9.166;2023-08-24T07:36:06;6.82;;;6.22;;
18754;SDS011;35061;47.664;9.166;2023-08-24T07:38:34;6.85;;;6.22;;
18754;SDS011;35061;47.664;9.166;2023-08-24T07:41:02;7.15;;;6.35;;
18754;SDS011;35061;47.664;9.166;2023-08-24T07:43:30;9.70;;;5.45;;
18754;SDS011;35061;47.664;9.166;2023-08-24T07:45:59;6.45;;;5.85;;
18754;SDS011;35061;47.664;9.166;2023-08-24T07:48:27;7.03;;;6.32;;
18754;SDS011;35061;47.664;9.166;2023-08-24T07:50:55;6.32;;;5.72;;
18754;SDS011;35061;47.664;9.166;2023-08-24T07:53:23;7.25;;;6.47;;
18754;SDS011;35061;47.664;9.166;2023-08-24T07:55:52;7.37;;;6.00;;
18754;SDS011;35061;47.664;9.166;2023-08-24T07:58:21;6.55;;;5.95;;
18754;SDS011;35061;47.664;9.166;2023-08-24T08:00:49;8.32;;;6.37;;
18754;SDS011;35061;47.664;9.166;2023-08-24T08:03:19;8.38;;;6.30;;
18754;SDS011;35061;47.664;9.166;2023-08-24T08:05:48;7.80;;;6.32;;
18754;SDS011;35061;47.664;9.166;2023-08-24T08:08:16;5.70;;;5.20;;
18754;SDS011;35061;47.664;9.166;2023-08-24T08:10:44;7.50;;;6.80;;
18754;SDS011;35061;47.664;9.166;2023-08-24T08:13:12;11.55;;;5.87;;
18754;SDS011;35061;47.664;9.166;2023-08-24T08:15:40;6.87;;;5.82;;
18754;SDS011;35061;47.664;9.166;2023-08-24T08:18:08;8.13;;;5.97;;
18754;SDS011;35061;47.664;9.166;2023-08-24T08:20:36;6.68;;;6.03;;
18754;SDS011;35061;47.664;9.166;2023-08-24T08:23:04;7.07;;;6.10;;
18754;SDS011;35061;47.664;9.166;2023-08-24T08:25:32;7.22;;;6.53;;
18754;SDS011;35061;47.664;9.166;2023-08-24T08:28:00;7.25;;;6.37;;
18754;SDS011;35061;47.664;9.166;2023-08-24T08:30:28;9.43;;;6.20;;
18754;SDS011;35061;47.664;9.166;2023-08-24T08:32:56;8.55;;;7.07;;
18754;SDS011;35061;47.664;9.166;2023-08-24T08:35:24;8.35;;;6.18;;
18754;SDS011;35061;47.664;9.166;2023-08-24T08:37:52;6.85;;;5.75;;
18754;SDS011;35061;47.664;9.166;2023-08-24T08:40:21;7.60;;;6.62;;
18754;SDS011;35061;47.664;9.166;2023-08-24T08:42:59;7.00;;;6.30;;
18754;SDS011;35061;47.664;9.166;2023-08-24T08:45:27;10.82;;;6.65;;
18754;SDS011;35061;47.664;9.166;2023-08-24T08:47:57;8.75;;;6.18;;
18754;SDS011;35061;47.664;9.166;2023-08-24T08:50:26;8.45;;;6.35;;
18754;SDS011;35061;47.664;9.166;2023-08-24T08:52:57;7.75;;;6.07;;
18754;SDS011;35061;47.664;9.166;2023-08-24T08:55:26;8.32;;;6.28;;
18754;SDS011;35061;47.664;9.166;2023-08-24T08:57:56;7.37;;;6.25;;
18754;SDS011;35061;47.664;9.166;2023-08-24T09:00:26;6.65;;;6.05;;
18754;SDS011;35061;47.664;9.166;2023-08-24T09:02:55;7.45;;;6.75;;
18754;SDS011;35061;47.664;9.166;2023-08-24T09:05:26;6.75;;;6.07;;
18754;SDS011;35061;47.664;9.166;2023-08-24T09:07:54;6.87;;;6.25;;
18754;SDS011;35061;47.664;9.166;2023-08-24T09:10:23;8.73;;;5.72;;
18754;SDS011;35061;47.664;9.166;2023-08-24T09:12:51;8.07;;;6.43;;
18754;SDS011;35061;47.664;9.166;2023-08-24T09:15:26;6.87;;;6.25;;
18754;SDS011;35061;47.664;9.166;2023-08-24T09:18:01;7.22;;;5.87;;
18754;SDS011;35061;47.664;9.166;2023-08-24T09:20:31;6.55;;;5.95;;
18754;SDS011;35061;47.664;9.166;2023-08-24T09:22:59;6.68;;;5.93;;
18754;SDS011;35061;47.664;9.166;2023-08-24T09:25:27;7.82;;;6.10;;
18754;SDS011;35061;47.664;9.166;2023-08-24T09:27:58;7.28;;;6.40;;
18754;SDS011;35061;47.664;9.166;2023-08-24T09:30:35;7.57;;;5.78;;
18754;SDS011;35061;47.664;9.166;2023-08-24T09:33:04;7.05;;;6.18;;
18754;SDS011;35061;47.664;9.166;2023-08-24T09:35:36;6.10;;;5.60;;
18754;SDS011;35061;47.664;9.166;2023-08-24T09:38:23;6.35;;;5.78;;
18754;SDS011;35061;47.664;9.166;2023-08-24T09:40:52;6.25;;;5.57;;
18754;SDS011;35061;47.664;9.166;2023-08-24T09:43:22;7.40;;;6.35;;
18754;SDS011;35061;47.664;9.166;2023-08-24T09:45:54;8.57;;;6.43;;
18754;SDS011;35061;47.664;9.166;2023-08-24T09:48:23;7.95;;;6.10;;
18754;SDS011;35061;47.664;9.166;2023-08-24T09:50:55;7.60;;;6.85;;
18754;SDS011;35061;47.664;9.166;2023-08-24T09:53:24;8.77;;;5.60;;
18754;SDS011;35061;47.664;9.166;2023-08-24T09:55:54;8.57;;;6.35;;
18754;SDS011;35061;47.664;9.166;2023-08-24T09:58:27;7.28;;;5.82;;
18754;SDS011;35061;47.664;9.166;2023-08-24T10:00:56;6.82;;;6.05;;
18754;SDS011;35061;47.664;9.166;2023-08-24T10:03:24;7.18;;;6.20;;
18754;SDS011;35061;47.664;9.166;2023-08-24T10:05:54;6.62;;;5.80;;
18754;SDS011;35061;47.664;9.166;2023-08-24T10:08:36;7.10;;;6.03;;
18754;SDS011;35061;47.664;9.166;2023-08-24T10:11:06;7.65;;;6.65;;
18754;SDS011;35061;47.664;9.166;2023-08-24T10:14:02;8.80;;;7.00;;
18754;SDS011;35061;47.664;9.166;2023-08-24T10:16:38;10.55;;;6.70;;
18754;SDS011;35061;47.664;9.166;2023-08-24T10:19:08;6.53;;;5.85;;
18754;SDS011;35061;47.664;9.166;2023-08-24T10:21:37;7.28;;;6.10;;
18754;SDS011;35061;47.664;9.166;2023-08-24T10:24:05;7.35;;;6.25;;
18754;SDS011;35061;47.664;9.166;2023-08-24T10:26:33;6.37;;;5.82;;
18754;SDS011;35061;47.664;9.166;2023-08-24T10:29:02;9.10;;;6.25;;
18754;SDS011;35061;47.664;9.166;2023-08-24T10:31:31;7.62;;;5.80;;
18754;SDS011;35061;47.664;9.166;2023-08-24T10:34:01;6.18;;;5.55;;
18754;SDS011;35061;47.664;9.166;2023-08-24T10:36:30;8.50;;;5.97;;
18754;SDS011;35061;47.664;9.166;2023-08-24T10:39:00;7.87;;;6.30;;
18754;SDS011;35061;47.664;9.166;2023-08-24T10:41:46;6.75;;;6.00;;
18754;SDS011;35061;47.664;9.166;2023-08-24T10:44:23;6.97;;;5.60;;
18754;SDS011;35061;47.664;9.166;2023-08-24T10:49:57;7.72;;;5.87;;
18754;SDS011;35061;47.664;9.166;2023-08-24T10:52:31;6.78;;;6.03;;
18754;SDS011;35061;47.664;9.166;2023-08-24T10:55:02;6.72;;;5.78;;
18754;SDS011;35061;47.664;9.166;2023-08-24T10:57:35;8.48;;;6.20;;
18754;SDS011;35061;47.664;9.166;2023-08-24T11:00:06;7.28;;;5.68;;
18754;SDS011;35061;47.664;9.166;2023-08-24T11:02:42;7.85;;;5.68;;
18754;SDS011;35061;47.664;9.166;2023-08-24T11:07:55;8.55;;;6.05;;
18754;SDS011;35061;47.664;9.166;2023-08-24T11:10:34;6.30;;;5.55;;
18754;SDS011;35061;47.664;9.166;2023-08-24T11:13:17;7.30;;;6.70;;
18754;SDS011;35061;47.664;9.166;2023-08-24T11:15:50;8.35;;;5.75;;
18754;SDS011;35061;47.664;9.166;2023-08-24T11:18:22;7.47;;;6.78;;
18754;SDS011;35061;47.664;9.166;2023-08-24T11:21:01;6.68;;;5.72;;
18754;SDS011;35061;47.664;9.166;2023-08-24T11:23:30;6.57;;;5.45;;
18754;SDS011;35061;47.664;9.166;2023-08-24T11:25:59;6.62;;;6.00;;
18754;SDS011;35061;47.664;9.166;2023-08-24T11:28:28;7.57;;;6.10;;
18754;SDS011;35061;47.664;9.166;2023-08-24T11:30:57;7.60;;;6.78;;
18754;SDS011;35061;47.664;9.166;2023-08-24T11:33:30;7.28;;;6.55;;
18754;SDS011;35061;47.664;9.166;2023-08-24T11:36:04;6.78;;;6.18;;
18754;SDS011;35061;47.664;9.166;2023-08-24T11:38:42;6.72;;;5.78;;
18754;SDS011;35061;47.664;9.166;2023-08-24T11:41:13;6.68;;;6.12;;
18754;SDS011;35061;47.664;9.166;2023-08-24T11:43:46;7.43;;;6.57;;
18754;SDS011;35061;47.664;9.166;2023-08-24T11:46:16;8.55;;;6.60;;
18754;SDS011;35061;47.664;9.166;2023-08-24T11:48:45;8.05;;;5.78;;
18754;SDS011;35061;47.664;9.166;2023-08-24T11:51:13;6.10;;;5.60;;
18754;SDS011;35061;47.664;9.166;2023-08-24T11:53:55;8.23;;;6.37;;
18754;SDS011;35061;47.664;9.166;2023-08-24T11:56:23;7.10;;;5.90;;
18754;SDS011;35061;47.664;9.166;2023-08-24T11:58:51;8.70;;;6.25;;
18754;SDS011;35061;47.664;9.166;2023-08-24T12:01:19;7.25;;;5.93;;
18754;SDS011;35061;47.664;9.166;2023-08-24T12:03:48;7.78;;;6.10;;
18754;SDS011;35061;47.664;9.166;2023-08-24T12:06:16;10.20;;;7.18;;
18754;SDS011;35061;47.664;9.166;2023-08-24T12:08:45;6.25;;;5.65;;
18754;SDS011;35061;47.664;9.166;2023-08-24T12:11:16;9.93;;;6.47;;
18754;SDS011;35061;47.664;9.166;2023-08-24T12:13:49;6.37;;;5.78;;
18754;SDS011;35061;47.664;9.166;2023-08-24T12:16:18;7.30;;;6.07;;
18754;SDS011;35061;47.664;9.166;2023-08-24T12:21:20;9.90;;;6.07;;
18754;SDS011;35061;47.664;9.166;2023-08-24T12:26:27;7.12;;;6.07;;
18754;SDS011;35061;47.664;9.166;2023-08-24T12:28:59;7.93;;;6.22;;
18754;SDS011;35061;47.664;9.166;2023-08-24T12:31:30;7.95;;;6.60;;
18754;SDS011;35061;47.664;9.166;2023-08-24T12:34:02;8.40;;;5.87;;
18754;SDS011;35061;47.664;9.166;2023-08-24T12:36:32;7.10;;;5.65;;
18754;SDS011;35061;47.664;9.166;2023-08-24T12:39:01;6.62;;;5.97;;
18754;SDS011;35061;47.664;9.166;2023-08-24T12:41:32;9.07;;;6.60;;
18754;SDS011;35061;47.664;9.166;2023-08-24T12:44:00;7.45;;;6.62;;
18754;SDS011;35061;47.664;9.166;2023-08-24T12:46:32;6.07;;;5.57;;
18754;SDS011;35061;47.664;9.166;2023-08-24T12:49:06;9.50;;;6.53;;
18754;SDS011;35061;47.664;9.166;2023-08-24T12:51:35;6.55;;;6.00;;
18754;SDS011;35061;47.664;9.166;2023-08-24T12:54:03;8.13;;;6.60;;
18754;SDS011;35061;47.664;9.166;2023-08-24T12:56:33;8.50;;;6.70;;
18754;SDS011;35061;47.664;9.166;2023-08-24T12:59:02;8.20;;;6.68;;
18754;SDS011;35061;47.664;9.166;2023-08-24T13:01:31;8.45;;;6.22;;
18754;SDS011;35061;47.664;9.166;2023-08-24T13:03:59;7.53;;;6.20;;
18754;SDS011;35061;47.664;9.166;2023-08-24T13:06:27;7.25;;;6.53;;
18754;SDS011;35061;47.664;9.166;2023-08-24T13:08:55;8.40;;;6.65;;
18754;SDS011;35061;47.664;9.166;2023-08-24T13:11:23;10.23;;;6.97;;
18754;SDS011;35061;47.664;9.166;2023-08-24T13:13:51;8.15;;;6.95;;
18754;SDS011;35061;47.664;9.166;2023-08-24T13:16:19;7.15;;;6.32;;
18754;SDS011;35061;47.664;9.166;2023-08-24T13:18:47;7.47;;;6.03;;
18754;SDS011;35061;47.664;9.166;2023-08-24T13:21:15;8.90;;;6.57;;
18754;SDS011;35061;47.664;9.166;2023-08-24T13:23:44;7.28;;;6.57;;
18754;SDS011;35061;47.664;9.166;2023-08-24T13:26:21;7.22;;;6.12;;
18754;SDS011;35061;47.664;9.166;2023-08-24T13:28:51;8.45;;;6.30;;
18754;SDS011;35061;47.664;9.166;2023-08-24T13:31:19;7.32;;;6.62;;
18754;SDS011;35061;47.664;9.166;2023-08-24T13:33:47;7.00;;;6.30;;
18754;SDS011;35061;47.664;9.166;2023-08-24T13:36:15;6.72;;;6.10;;
18754;SDS011;35061;47.664;9.166;2023-08-24T13:38:44;7.78;;;6.00;;
18754;SDS011;35061;47.664;9.166;2023-08-24T13:41:12;6.20;;;5.50;;
18754;SDS011;35061;47.664;9.166;2023-08-24T13:43:40;8.45;;;6.28;;
18754;SDS011;35061;47.664;9.166;2023-08-24T13:46:09;6.50;;;5.85;;
18754;SDS011;35061;47.664;9.166;2023-08-24T13:48:38;7.07;;;6.35;;
18754;SDS011;35061;47.664;9.166;2023-08-24T13:51:06;10.20;;;7.35;;
18754;SDS011;35061;47.664;9.166;2023-08-24T13:53:35;8.55;;;6.65;;
18754;SDS011;35061;47.664;9.166;2023-08-24T13:56:04;7.20;;;5.93;;
18754;SDS011;35061;47.664;9.166;2023-08-24T13:58:33;6.50;;;5.90;;
18754;SDS011;35061;47.664;9.166;2023-08-24T14:01:01;7.10;;;6.35;;
18754;SDS011;35061;47.664;9.166;2023-08-24T14:03:30;6.97;;;6.22;;
18754;SDS011;35061;47.664;9.166;2023-08-24T14:05:58;7.20;;;6.40;;
18754;SDS011;35061;47.664;9.166;2023-08-24T14:08:27;7.62;;;6.72;;
18754;SDS011;35061;47.664;9.166;2023-08-24T14:10:55;7.37;;;6.35;;
18754;SDS011;35061;47.664;9.166;2023-08-24T14:13:24;7.32;;;5.85;;
18754;SDS011;35061;47.664;9.166;2023-08-24T14:15:52;9.23;;;6.15;;
18754;SDS011;35061;47.664;9.166;2023-08-24T14:18:20;14.73;;;8.52;;
18754;SDS011;35061;47.664;9.166;2023-08-24T14:20:48;11.80;;;6.30;;
18754;SDS011;35061;47.664;9.166;2023-08-24T14:23:16;7.55;;;6.28;;
18754;SDS011;35061;47.664;9.166;2023-08-24T14:25:45;10.55;;;6.28;;
18754;SDS011;35061;47.664;9.166;2023-08-24T14:28:18;11.07;;;6.40;;
18754;SDS011;35061;47.664;9.166;2023-08-24T14:30:50;8.18;;;6.22;;
18754;SDS011;35061;47.664;9.166;2023-08-24T14:33:18;8.43;;;6.40;;
18754;SDS011;35061;47.664;9.166;2023-08-24T14:35:50;7.28;;;6.37;;
18754;SDS011;35061;47.664;9.166;2023-08-24T14:38:19;8.07;;;5.95;;
18754;SDS011;35061;47.664;9.166;2023-08-24T14:40:47;7.12;;;5.45;;
18754;SDS011;35061;47.664;9.166;2023-08-24T14:43:15;6.75;;;6.05;;
18754;SDS011;35061;47.664;9.166;2023-08-24T14:45:43;7.70;;;5.87;;
18754;SDS011;35061;47.664;9.166;2023-08-24T14:48:11;8.20;;;6.03;;
18754;SDS011;35061;47.664;9.166;2023-08-24T14:50:41;8.48;;;5.95;;
18754;SDS011;35061;47.664;9.166;2023-08-24T14:53:09;9.27;;;6.50;;
18754;SDS011;35061;47.664;9.166;2023-08-24T14:55:37;6.25;;;5.65;;
18754;SDS011;35061;47.664;9.166;2023-08-24T14:58:06;7.25;;;6.15;;
18754;SDS011;35061;47.664;9.166;2023-08-24T15:00:35;8.07;;;6.47;;
18754;SDS011;35061;47.664;9.166;2023-08-24T15:03:03;7.90;;;6.40;;
18754;SDS011;35061;47.664;9.166;2023-08-24T15:05:37;9.63;;;6.53;;
18754;SDS011;35061;47.664;9.166;2023-08-24T15:08:10;8.98;;;6.45;;
18754;SDS011;35061;47.664;9.166;2023-08-24T15:10:39;12.37;;;7.20;;
18754;SDS011;35061;47.664;9.166;2023-08-24T15:13:07;10.15;;;6.37;;
18754;SDS011;35061;47.664;9.166;2023-08-24T15:15:35;7.45;;;6.53;;
18754;SDS011;35061;47.664;9.166;2023-08-24T15:18:04;8.18;;;6.62;;
18754;SDS011;35061;47.664;9.166;2023-08-24T15:20:33;9.85;;;6.95;;